Time;durP1;ratioP1;P1;durP2;ratioP2;P2;SDS_P1;SDS_P2;PMS_P1;PMS_P2;Temp;Humidity;BMP_temperature;BMP_pressure;BME280_temperature;BME280_humidity;BME280_pressure;Samples;Min_cycle;Max_cycle;Signal;HPM_P1;HPM_P2
2022/04/05 00:01:42;;;;;;;21.87;3.30;;;;;;;2.95;100.00;99230.53;5010891;28;20030;-79
2022/04/05 00:04:07;;;;;;;21.17;2.87;;;;;;;2.93;100.00;99237.75;4994285;28;20081;-80
2022/04/05 00:06:33;;;;;;;24.48;3.70;;;;;;;2.94;100.00;99241.22;4991349;28;20368;-80
2022/04/05 00:08:58;;;;;;;27.77;4.03;;;;;;;3.00;100.00;99251.16;5010183;28;20038;-80
2022/04/05 00:11:23;;;;;;;15.80;2.07;;;;;;;3.02;100.00;99251.84;5010712;28;20073;-80
2022/04/05 00:13:49;;;;;;;16.63;3.37;;;;;;;3.01;100.00;99241.44;5010430;28;20871;-80
2022/04/05 00:16:14;;;;;;;11.87;3.10;;;;;;;3.06;100.00;99237.34;4998660;28;20030;-80
2022/04/05 00:18:40;;;;;;;19.57;1.83;;;;;;;3.10;100.00;99243.19;4994464;28;20033;-82
2022/04/05 00:21:06;;;;;;;11.77;3.07;;;;;;;3.09;100.00;99231.81;4993915;28;20116;-81
2022/04/05 00:23:32;;;;;;;20.55;3.13;;;;;;;3.15;100.00;99238.25;5004964;28;20053;-80
2022/04/05 00:25:57;;;;;;;11.63;3.20;;;;;;;3.14;100.00;99229.53;4978473;28;20044;-80
2022/04/05 00:28:23;;;;;;;16.13;2.53;;;;;;;3.14;100.00;99234.81;5002514;28;20120;-80
2022/04/05 00:30:48;;;;;;;11.15;2.13;;;;;;;3.06;100.00;99234.72;4994038;28;20028;-79
2022/04/05 00:33:13;;;;;;;16.08;2.70;;;;;;;3.08;100.00;99242.50;5001934;28;20022;-81
2022/04/05 00:35:39;;;;;;;8.70;2.10;;;;;;;3.01;100.00;99244.06;5007178;28;20018;-81
2022/04/05 00:38:05;;;;;;;15.98;3.38;;;;;;;2.97;100.00;99243.53;5009980;28;20069;-81
2022/04/05 00:40:30;;;;;;;22.65;2.70;;;;;;;2.94;100.00;99244.66;5009749;28;20076;-81
2022/04/05 00:42:57;;;;;;;16.27;2.70;;;;;;;2.89;100.00;99240.84;4993759;28;20140;-79
2022/04/05 00:45:22;;;;;;;14.00;2.92;;;;;;;2.94;100.00;99243.84;5001520;28;20037;-81
2022/04/05 00:47:55;;;;;;;19.63;4.57;;;;;;;3.02;100.00;99251.84;5001602;28;20025;-80
2022/04/05 00:50:22;;;;;;;18.70;3.92;;;;;;;3.10;100.00;99256.34;5009966;28;20483;-80
2022/04/05 00:52:48;;;;;;;18.35;2.20;;;;;;;3.09;100.00;99249.41;5010104;28;20080;-81
2022/04/05 00:55:17;;;;;;;19.40;2.85;;;;;;;2.99;100.00;99256.56;4990463;28;20030;-81
2022/04/05 00:57:45;;;;;;;16.35;2.10;;;;;;;3.00;100.00;99264.34;4993390;28;20072;-79
2022/04/05 01:00:11;;;;;;;13.57;2.03;;;;;;;2.95;100.00;99259.53;4993828;28;20095;-79
2022/04/05 01:02:38;;;;;;;13.52;2.20;;;;;;;2.99;100.00;99267.13;4993405;28;20416;-79
2022/04/05 01:05:05;;;;;;;17.42;3.63;;;;;;;2.95;100.00;99264.78;5009284;28;20030;-79
2022/04/05 01:07:32;;;;;;;18.02;2.67;;;;;;;2.95;100.00;99266.59;4989876;28;20096;-80
2022/04/05 01:09:59;;;;;;;18.05;3.95;;;;;;;2.89;100.00;99273.28;5009355;28;20026;-80
2022/04/05 01:12:24;;;;;;;12.77;2.83;;;;;;;2.81;100.00;99267.09;5010249;28;20034;-79
2022/04/05 01:14:51;;;;;;;15.55;1.65;;;;;;;2.80;100.00;99268.09;5009730;28;20091;-83
2022/04/05 01:17:17;;;;;;;11.68;2.05;;;;;;;2.79;100.00;99279.63;5010271;28;20041;-80
2022/04/05 01:19:43;;;;;;;19.95;3.08;;;;;;;2.91;100.00;99271.34;4993079;28;20034;-80
2022/04/05 01:22:09;;;;;;;11.93;1.67;;;;;;;2.87;100.00;99269.97;4994061;28;20019;-78
2022/04/05 01:24:35;;;;;;;;;;;;;;;2.91;100.00;99270.50;4993622;28;20037;-81
2022/04/05 01:27:04;;;;;;;10.50;3.42;;;;;;;2.92;100.00;99261.63;5002074;28;19913;-80
2022/04/05 01:29:30;;;;;;;15.02;1.40;;;;;;;2.90;100.00;99251.25;5001547;28;20422;-81
2022/04/05 01:32:07;;;;;;;9.02;2.20;;;;;;;2.97;100.00;99269.91;4993439;28;20064;-80
2022/04/05 01:34:34;;;;;;;8.77;1.70;;;;;;;2.94;100.00;99257.03;5013636;28;20033;-78
2022/04/05 01:37:02;;;;;;;11.02;2.25;;;;;;;2.91;100.00;99259.97;4997101;28;20080;-82
2022/04/05 01:39:30;;;;;;;8.07;1.73;;;;;;;2.92;100.00;99258.97;4997466;28;20037;-80
2022/04/05 01:42:02;;;;;;;14.65;2.35;;;;;;;2.87;100.00;99264.69;4981837;28;20430;-79
2022/04/05 01:44:29;;;;;;;10.45;3.15;;;;;;;2.86;100.00;99262.22;5014682;28;20048;-79
2022/04/05 01:46:56;;;;;;;16.33;1.60;;;;;;;2.84;100.00;99256.28;4996906;28;20839;-82
2022/04/05 01:49:22;;;;;;;15.63;3.00;;;;;;;2.86;100.00;99262.22;5011544;28;20033;-78
2022/04/05 01:51:49;;;;;;;6.60;1.60;;;;;;;2.84;100.00;99266.81;4997181;28;20065;-79
2022/04/05 01:54:17;;;;;;;7.22;1.85;;;;;;;2.73;100.00;99273.13;5013303;28;20627;-80
2022/04/05 01:56:42;;;;;;;11.60;1.55;;;;;;;2.76;100.00;99275.44;4997197;28;20045;-78
2022/04/05 01:59:08;;;;;;;14.43;1.83;;;;;;;2.73;100.00;99262.56;5004839;28;20069;-79
2022/04/05 02:01:33;;;;;;;14.88;1.77;;;;;;;2.72;100.00;99272.28;5013343;28;20495;-78
2022/04/05 02:03:59;;;;;;;12.60;1.80;;;;;;;2.68;100.00;99268.28;5012695;28;20025;-78
2022/04/05 02:06:25;;;;;;;9.03;2.23;;;;;;;2.68;100.00;99265.66;4997240;28;20030;-79
2022/04/05 02:08:50;;;;;;;10.73;2.50;;;;;;;2.65;100.00;99280.94;5013485;28;20686;-79
2022/04/05 02:11:16;;;;;;;13.38;2.03;;;;;;;2.74;100.00;99290.59;5004753;28;20120;-79
2022/04/05 02:13:44;;;;;;;6.20;1.42;;;;;;;2.78;100.00;99280.59;5012379;28;20014;-82
2022/04/05 02:16:10;;;;;;;14.77;1.70;;;;;;;2.76;100.00;99278.09;5013065;28;20095;-80
2022/04/05 02:18:37;;;;;;;7.60;1.58;;;;;;;2.66;100.00;99285.22;5004991;28;20396;-80
2022/04/05 02:21:05;;;;;;;14.00;2.47;;;;;;;2.67;100.00;99290.38;5004378;28;20030;-78
2022/04/05 02:23:31;;;;;;;13.93;1.75;;;;;;;2.66;100.00;99293.13;4996376;28;20030;-81
2022/04/05 02:26:06;;;;;;;14.32;2.15;;;;;;;2.55;100.00;99299.41;5012887;28;20034;-78
2022/04/05 02:28:36;;;;;;;12.60;2.50;;;;;;;2.59;100.00;99303.44;5004854;28;20077;-80
2022/04/05 02:31:07;;;;;;;15.60;1.98;;;;;;;2.60;100.00;99297.19;4988220;28;20036;-78
2022/04/05 02:33:36;;;;;;;11.38;1.90;;;;;;;2.42;100.00;99293.69;5012374;28;20026;-81
2022/04/05 02:36:07;;;;;;;13.60;3.20;;;;;;;2.53;100.00;99310.13;5004627;28;20024;-78
2022/04/05 02:38:33;;;;;;;13.35;1.77;;;;;;;2.53;100.00;99310.13;5012881;28;20034;-80
2022/04/05 02:40:59;;;;;;;9.73;1.30;;;;;;;2.57;100.00;99317.72;5004325;28;20021;-80
2022/04/05 02:43:27;;;;;;;7.10;1.52;;;;;;;2.52;100.00;99318.97;5012160;28;20030;-79
2022/04/05 02:45:55;;;;;;;5.82;1.58;;;;;;;2.47;100.00;99326.50;4996193;28;20030;-82
2022/04/05 02:48:22;;;;;;;11.18;1.23;;;;;;;2.50;100.00;99330.66;5012225;28;20025;-79
2022/04/05 02:50:50;;;;;;;15.27;1.85;;;;;;;2.52;100.00;99337.44;5011955;28;20022;-78
2022/04/05 02:53:16;;;;;;;18.42;3.08;;;;;;;2.49;100.00;99323.72;5004030;28;20442;-79
2022/04/05 02:55:42;;;;;;;15.32;1.75;;;;;;;2.45;100.00;99333.72;5012192;28;20026;-80
2022/04/05 02:58:09;;;;;;;13.07;1.40;;;;;;;2.45;100.00;99340.78;4996331;28;20034;-79
2022/04/05 03:00:36;;;;;;;14.30;2.10;;;;;;;2.38;100.00;99339.72;5012433;28;20121;-80
2022/04/05 03:03:06;;;;;;;15.55;4.00;;;;;;;2.32;100.00;99362.22;5012398;28;20109;-78
2022/04/05 03:05:32;;;;;;;10.13;1.58;;;;;;;2.39;100.00;99349.25;5012057;28;20107;-79
2022/04/05 03:08:03;;;;;;;12.73;2.67;;;;;;;2.39;100.00;99360.66;4995919;28;20085;-79
2022/04/05 03:10:30;;;;;;;12.95;1.48;;;;;;;2.42;100.00;99360.34;5004053;28;20058;-81
2022/04/05 03:12:56;;;;;;;14.10;3.47;;;;;;;2.35;100.00;99364.53;5012189;28;20032;-78
2022/04/05 03:15:22;;;;;;;20.13;2.95;;;;;;;2.38;100.00;99361.59;4993196;28;20113;-80
2022/04/05 03:17:50;;;;;;;10.18;1.52;;;;;;;2.38;100.00;99371.31;4995646;28;20084;-79
2022/04/05 03:20:20;;;;;;;13.50;2.70;;;;;;;2.33;100.00;99369.13;5011765;28;20088;-83
2022/04/05 03:22:48;;;;;;;16.00;1.70;;;;;;;2.30;100.00;99383.41;5003629;28;20052;-78
2022/04/05 03:25:14;;;;;;;9.85;1.20;;;;;;;2.22;100.00;99380.63;4995665;28;20016;-81
2022/04/05 03:27:42;;;;;;;14.93;2.55;;;;;;;2.28;100.00;99389.78;5011315;28;20041;-80
2022/04/05 03:30:12;;;;;;;8.68;1.73;;;;;;;2.37;100.00;99394.22;5011721;28;20026;-81
2022/04/05 03:32:40;;;;;;;10.40;2.38;;;;;;;2.33;100.00;99398.09;5011690;28;20034;-81
2022/04/05 03:35:07;;;;;;;10.43;1.70;;;;;;;2.26;100.00;99391.72;5012217;28;20123;-80
2022/04/05 03:37:32;;;;;;;11.05;1.63;;;;;;;2.29;100.00;99401.97;4995869;28;20137;-80
2022/04/05 03:39:59;;;;;;;12.35;1.83;;;;;;;2.26;100.00;99402.28;5011678;28;20026;-79
2022/04/05 03:42:25;;;;;;;;;;;;;;;2.23;100.00;99405.19;5012098;28;20072;-81
2022/04/05 03:44:51;;;;;;;14.68;2.53;;;;;;;2.12;100.00;99403.53;5011000;28;19910;-78
2022/04/05 03:47:17;;;;;;;15.45;1.92;;;;;;;2.11;100.00;99407.97;5003289;28;20083;-80
2022/04/05 03:49:43;;;;;;;10.63;2.40;;;;;;;2.22;100.00;99414.88;5003242;28;20113;-79
2022/04/05 03:52:09;;;;;;;11.63;2.10;;;;;;;2.18;100.00;99416.16;4993021;28;20041;-79
2022/04/05 03:54:36;;;;;;;14.75;2.33;;;;;;;2.15;100.00;99419.03;5003735;28;20037;-79
2022/04/05 03:57:06;;;;;;;8.93;1.45;;;;;;;2.16;100.00;99425.16;4987747;28;20033;-78
2022/04/05 03:59:32;;;;;;;;;;;;;;;2.14;100.00;99429.75;4995853;28;20048;-79
2022/04/05 04:01:58;;;;;;;8.13;1.48;;;;;;;2.15;100.00;99431.38;5011385;28;19910;-80
2022/04/05 04:04:24;;;;;;;14.38;1.60;;;;;;;2.10;100.00;99422.09;5011136;28;20022;-79
2022/04/05 04:06:49;;;;;;;13.52;2.10;;;;;;;2.09;100.00;99428.34;5003006;28;20069;-82
2022/04/05 04:09:15;;;;;;;11.35;1.55;;;;;;;2.04;100.00;99422.69;5002459;28;20033;-80
2022/04/05 04:11:41;;;;;;;;;;;;;;;2.05;100.00;99432.22;5011154;28;20041;-83
2022/04/05 04:14:08;;;;;;;10.80;2.35;;;;;;;2.04;100.00;99435.84;5010207;28;19932;-80
2022/04/05 04:16:34;;;;;;;15.32;1.65;;;;;;;2.00;100.00;99441.53;4994014;28;20494;-79
2022/04/05 04:18:59;;;;;;;10.38;2.10;;;;;;;1.97;100.00;99434.75;4995368;28;20341;-81
2022/04/05 04:21:28;;;;;;;9.90;1.67;;;;;;;1.97;100.00;99436.53;5010285;28;20148;-78
2022/04/05 04:23:54;;;;;;;12.85;1.30;;;;;;;1.89;100.00;99439.84;4993999;28;20010;-79
2022/04/05 04:26:21;;;;;;;5.18;1.40;;;;;;;1.87;100.00;99434.75;5010502;28;20034;-78
2022/04/05 04:28:51;;;;;;;17.10;2.13;;;;;;;1.86;100.00;99442.78;5010831;28;20025;-78
2022/04/05 04:31:17;;;;;;;7.93;1.50;;;;;;;1.82;100.00;99444.00;4994376;28;20041;-79
2022/04/05 04:33:42;;;;;;;8.73;1.17;;;;;;;1.83;100.00;99438.63;4994045;28;20018;-79
2022/04/05 04:36:08;;;;;;;11.90;2.00;;;;;;;1.82;100.00;99441.38;5002903;28;20037;-79
2022/04/05 04:38:34;;;;;;;8.32;1.50;;;;;;;1.85;100.00;99446.34;4994303;28;20049;-81
2022/04/05 04:41:00;;;;;;;6.80;1.20;;;;;;;1.84;100.00;99439.44;4993671;28;20471;-79
2022/04/05 04:43:27;;;;;;;8.68;1.35;;;;;;;1.80;100.00;99449.44;4998503;28;20069;-82
2022/04/05 04:45:54;;;;;;;9.70;1.42;;;;;;;1.77;100.00;99443.59;4993127;28;20057;-81
2022/04/05 04:48:20;;;;;;;8.60;1.73;;;;;;;1.76;100.00;99448.03;4990329;28;20021;-81
2022/04/05 04:50:49;;;;;;;7.18;1.15;;;;;;;1.81;100.00;99452.88;5000173;28;20399;-82
2022/04/05 04:53:15;;;;;;;10.93;1.40;;;;;;;1.85;100.00;99451.63;4992691;28;20036;-78
2022/04/05 04:55:41;;;;;;;9.55;1.60;;;;;;;1.88;100.00;99456.63;4992512;28;20033;-80
2022/04/05 04:58:07;;;;;;;15.18;2.15;;;;;;;1.95;100.00;99460.38;5010946;28;20025;-80
2022/04/05 05:00:32;;;;;;;11.43;2.00;;;;;;;1.86;100.00;99458.56;5009722;28;20065;-82
2022/04/05 05:02:58;;;;;;;13.70;1.80;;;;;;;1.90;100.00;99465.22;5000935;28;20051;-82
2022/04/05 05:05:23;;;;;;;7.17;1.37;;;;;;;1.90;100.00;99467.84;5009089;28;20707;-82
2022/04/05 05:07:51;;;;;;;13.70;2.33;;;;;;;1.88;100.00;99472.41;5001305;28;20826;-81
2022/04/05 05:10:21;;;;;;;17.00;1.15;;;;;;;1.82;100.00;99472.97;5008965;28;20044;-81
2022/04/05 05:12:47;;;;;;;10.07;2.80;;;;;;;1.80;100.00;99475.75;4992985;28;20092;-83
2022/04/05 05:15:15;;;;;;;9.45;2.10;;;;;;;1.75;100.00;99487.63;4992475;28;20105;-82
2022/04/05 05:17:41;;;;;;;12.98;2.13;;;;;;;1.79;100.00;99491.66;5008472;28;20045;-82
2022/04/05 05:20:08;;;;;;;6.40;1.30;;;;;;;1.78;100.00;99506.63;4992528;28;20018;-83
2022/04/05 05:22:33;;;;;;;4.85;1.00;;;;;;;1.84;100.00;99516.59;4992768;28;20198;-80
2022/04/05 05:24:59;;;;;;;8.85;2.00;;;;;;;1.89;100.00;99521.44;5000569;28;20093;-82
2022/04/05 05:27:24;;;;;;;10.97;1.90;;;;;;;1.96;100.00;99527.00;4999633;28;20787;-78
2022/04/05 05:29:49;;;;;;;18.03;3.20;;;;;;;2.02;100.00;99527.28;5006491;28;20112;-78
2022/04/05 05:32:15;;;;;;;14.27;2.40;;;;;;;2.11;100.00;99530.91;5006502;28;20375;-81
2022/04/05 05:34:41;;;;;;;9.98;1.92;;;;;;;2.10;100.00;99524.78;4998630;28;20156;-82
2022/04/05 05:37:06;;;;;;;10.90;2.63;;;;;;;2.08;100.00;99526.75;5006076;28;20036;-81
2022/04/05 05:39:33;;;;;;;8.00;2.00;;;;;;;2.15;100.00;99528.81;5004838;28;20402;-81
2022/04/05 05:41:58;;;;;;;;;;;;;;;2.16;100.00;99533.13;4974283;28;20038;-80
2022/04/05 05:44:24;;;;;;;13.48;2.45;;;;;;;2.19;100.00;99538.09;4999013;28;20253;-80
2022/04/05 05:46:50;;;;;;;11.45;2.10;;;;;;;2.26;100.00;99541.84;4979733;28;20038;-82
2022/04/05 05:49:15;;;;;;;8.80;2.75;;;;;;;2.24;100.00;99535.88;4993091;28;20030;-78
2022/04/05 05:51:41;;;;;;;11.23;2.03;;;;;;;2.30;100.00;99548.50;5001459;28;20089;-79
2022/04/05 05:54:06;;;;;;;6.17;1.43;;;;;;;2.48;100.00;99557.38;5008841;28;20026;-80
2022/04/05 05:56:32;;;;;;;15.98;2.83;;;;;;;2.58;100.00;99553.91;5008584;28;20064;-83
2022/04/05 05:58:57;;;;;;;12.32;2.75;;;;;;;2.73;100.00;99553.31;4976881;28;20022;-78
2022/04/05 06:01:23;;;;;;;9.53;2.53;;;;;;;3.57;100.00;99564.84;5008728;28;20034;-78
2022/04/05 06:03:49;;;;;;;20.02;4.22;;;;;;;4.20;100.00;99540.28;5008736;28;20029;-79
2022/04/05 06:06:14;;;;;;;10.43;2.28;;;;;;;4.70;100.00;99537.06;5008545;28;20132;-82
2022/04/05 06:08:40;;;;;;;7.13;1.93;;;;;;;4.86;100.00;99513.38;5009140;28;20042;-80
2022/04/05 06:11:07;;;;;;;17.27;3.05;;;;;;;5.43;100.00;99499.63;5008421;28;20458;-77
2022/04/05 06:13:34;;;;;;;10.85;3.25;;;;;;;5.46;96.60;99451.63;5009146;28;20427;-80
2022/04/05 06:15:59;;;;;;;11.13;1.77;;;;;;;5.44;94.52;99443.03;4992269;28;20095;-79
2022/04/05 06:18:25;;;;;;;18.67;3.03;;;;;;;5.24;93.12;99441.63;5009612;28;20030;-81
2022/04/05 06:20:50;;;;;;;14.70;2.17;;;;;;;5.70;91.98;99448.22;5004150;28;20033;-79
2022/04/05 06:23:15;;;;;;;10.83;3.23;;;;;;;6.14;88.61;99423.28;4992061;28;20076;-78
2022/04/05 06:25:41;;;;;;;14.80;3.20;;;;;;;6.53;86.25;99412.81;5002143;28;20125;-81
2022/04/05 06:28:09;;;;;;;6.93;1.63;;;;;;;6.54;83.59;99365.91;5012817;28;20368;-78
2022/04/05 06:30:37;;;;;;;9.88;1.80;;;;;;;6.70;82.64;99370.34;4995914;28;20038;-80
2022/04/05 06:33:13;;;;;;;8.80;1.83;;;;;;;7.05;81.40;99368.22;5004544;28;20036;-79
2022/04/05 06:35:45;;;;;;;11.90;2.00;;;;;;;6.83;79.81;99335.28;5006919;28;20057;-81
2022/04/05 06:38:11;;;;;;;10.75;1.52;;;;;;;7.63;78.39;99355.41;5008771;28;20134;-78
2022/04/05 06:40:37;;;;;;;13.50;1.88;;;;;;;7.29;76.46;99291.06;5008959;28;20041;-79
2022/04/05 06:43:03;;;;;;;16.08;2.05;;;;;;;6.37;78.43;99303.31;4992648;28;20037;-78
2022/04/05 06:45:28;;;;;;;11.80;1.63;;;;;;;5.43;81.04;99348.75;5000889;28;20036;-79
2022/04/05 06:47:54;;;;;;;12.10;1.88;;;;;;;5.31;83.78;99416.19;4993941;28;20049;-79
2022/04/05 06:50:26;;;;;;;11.13;1.70;;;;;;;5.81;86.00;99475.41;5000631;28;20029;-83
2022/04/05 06:52:54;;;;;;;13.15;3.05;;;;;;;5.69;85.50;99461.63;4992244;28;20038;-81
2022/04/05 06:55:20;;;;;;;14.13;2.58;;;;;;;5.34;85.99;99447.63;5001040;28;20010;-84
2022/04/05 06:57:45;;;;;;;13.85;2.85;;;;;;;5.24;87.54;99479.53;4981811;28;20033;-80
2022/04/05 07:00:12;;;;;;;13.73;2.60;;;;;;;5.02;88.42;99469.50;4998858;28;20029;-78
2022/04/05 07:02:38;;;;;;;14.68;2.15;;;;;;;4.64;89.84;99488.28;4992217;28;20685;-78
2022/04/05 07:05:04;;;;;;;12.93;2.45;;;;;;;4.67;91.95;99523.34;4991841;28;20018;-79
2022/04/05 07:07:30;;;;;;;9.60;1.58;;;;;;;4.63;93.63;99528.09;4991238;28;20086;-83
2022/04/05 07:09:55;;;;;;;13.45;2.67;;;;;;;4.48;95.73;99546.31;4985451;28;20026;-80
2022/04/05 07:12:23;;;;;;;13.32;2.00;;;;;;;4.23;96.84;99546.09;4992165;28;20471;-77
2022/04/05 07:14:48;;;;;;;15.40;2.30;;;;;;;3.99;97.23;99541.41;4990545;28;20038;-79
2022/04/05 07:17:14;;;;;;;11.27;1.30;;;;;;;4.10;97.06;99556.22;5007254;28;20117;-78
2022/04/05 07:19:39;;;;;;;8.13;1.20;;;;;;;4.01;97.71;99554.47;5007067;28;20030;-82
2022/04/05 07:22:05;;;;;;;14.10;1.77;;;;;;;4.26;98.65;99579.31;4990994;28;20132;-84
2022/04/05 07:24:30;;;;;;;5.57;1.65;;;;;;;4.35;98.55;99582.84;5007881;28;20021;-80
2022/04/05 07:26:56;;;;;;;2.97;1.10;;;;;;;4.48;100.00;99604.47;4990680;28;20074;-78
2022/04/05 07:29:22;;;;;;;8.25;1.42;;;;;;;4.61;99.92;99610.22;5006511;28;20268;-80
2022/04/05 07:31:47;;;;;;;7.22;1.85;;;;;;;5.04;99.33;99611.19;4989339;28;20511;-82
2022/04/05 07:34:13;;;;;;;7.70;1.90;;;;;;;5.33;98.60;99618.00;4991863;28;20387;-82
2022/04/05 07:36:38;;;;;;;13.13;1.77;;;;;;;5.62;96.39;99598.28;4991275;28;20037;-80
2022/04/05 07:39:04;;;;;;;10.20;2.33;;;;;;;6.02;93.94;99586.25;5006667;28;20026;-78
2022/04/05 07:41:29;;;;;;;9.20;2.38;;;;;;;6.28;91.09;99565.75;5000360;28;20403;-78
2022/04/05 07:43:54;;;;;;;8.70;2.33;;;;;;;6.70;88.54;99546.22;4993845;28;20030;-76
2022/04/05 07:46:20;;;;;;;9.87;1.70;;;;;;;6.72;85.96;99512.41;4993633;28;20060;-77
2022/04/05 07:48:47;;;;;;;9.77;2.17;;;;;;;6.70;84.28;99487.88;5010051;28;20041;-78
2022/04/05 07:51:16;;;;;;;12.00;2.25;;;;;;;7.15;83.21;99494.38;4997578;28;20029;-77
2022/04/05 07:53:41;;;;;;;11.65;1.70;;;;;;;7.14;80.71;99431.69;4997448;28;20038;-80
2022/04/05 07:56:08;;;;;;;14.27;3.87;;;;;;;7.11;78.55;99410.78;5006047;28;20080;-77
2022/04/05 07:58:33;;;;;;;;;;;;;;;7.73;77.32;99414.44;5007728;28;20080;-79
2022/04/05 08:00:58;;;;;;;;;;;;;;;7.37;74.76;99332.66;4979324;28;19913;-76
2022/04/05 08:03:24;;;;;;;10.70;1.50;;;;;;;7.72;74.65;99376.41;4998313;28;19924;-77
2022/04/05 08:05:49;;;;;;;7.00;1.60;;;;;;;7.98;73.41;99351.28;4989303;28;20588;-81
2022/04/05 08:08:15;;;;;;;3.40;1.10;;;;;;;8.32;70.60;99254.25;5005696;28;20487;-80
2022/04/05 08:10:41;;;;;;;9.27;2.40;;;;;;;8.15;70.21;99286.34;5002632;28;20046;-78
2022/04/05 08:13:06;;;;;;;6.90;0.90;;;;;;;8.25;69.10;99243.53;4995594;28;20048;-78
2022/04/05 08:15:32;;;;;;;8.27;1.40;;;;;;;8.42;69.21;99290.22;4989326;28;20034;-79
2022/04/05 08:17:57;;;;;;;10.80;1.50;;;;;;;8.19;67.81;99204.38;4981625;28;20028;-77
2022/04/05 08:20:24;;;;;;;6.82;1.00;;;;;;;7.84;69.48;99270.53;5006657;28;20395;-78
2022/04/05 08:22:49;;;;;;;;;;;;;;;7.72;69.29;99264.00;4989398;28;20648;-82
2022/04/05 08:25:16;;;;;;;;;;;;;;;7.48;70.41;99286.28;4997053;28;20216;-78
2022/04/05 08:27:47;;;;;;;12.05;2.80;;;;;;;7.00;70.63;99259.09;4997748;28;19967;-77
2022/04/05 08:30:17;;;;;;;7.75;1.02;;;;;;;7.08;72.48;99363.38;5006130;28;20112;-77
2022/04/05 08:32:44;;;;;;;10.23;1.58;;;;;;;6.62;72.84;99334.03;4989165;28;20030;-79
2022/04/05 08:35:11;;;;;;;9.70;1.60;;;;;;;6.71;72.76;99343.63;5006172;28;20633;-82
2022/04/05 08:37:37;;;;;;;7.90;1.33;;;;;;;6.92;70.95;99305.91;5006471;28;20022;-78
2022/04/05 08:40:06;;;;;;;9.15;1.48;;;;;;;7.38;70.62;99350.25;5005776;28;20036;-80
2022/04/05 08:42:36;;;;;;;8.95;1.15;;;;;;;7.78;69.76;99345.66;4989160;28;20022;-78
2022/04/05 08:45:06;;;;;;;7.60;1.65;;;;;;;7.82;69.30;99320.38;4966393;28;20049;-79
2022/04/05 08:47:34;;;;;;;7.32;1.45;;;;;;;7.37;69.00;99260.97;5004447;28;20061;-79
2022/04/05 08:50:02;;;;;;;6.40;1.15;;;;;;;6.73;70.09;99271.84;4996882;28;20097;-81
2022/04/05 08:52:28;;;;;;;6.88;1.67;;;;;;;6.44;73.35;99392.63;5013764;28;20473;-81
2022/04/05 08:54:54;;;;;;;8.45;1.38;;;;;;;6.39;75.57;99468.31;5000018;28;20018;-82
2022/04/05 08:57:19;;;;;;;8.50;1.70;;;;;;;6.52;78.49;99543.72;5003296;28;20125;-86
2022/04/05 08:59:45;;;;;;;7.90;1.33;;;;;;;6.64;80.65;99565.44;5000377;28;20460;-84
2022/04/05 09:02:11;;;;;;;7.97;1.13;;;;;;;7.25;81.95;99596.91;5020405;28;20064;-83
2022/04/05 09:04:37;;;;;;;10.95;1.23;;;;;;;7.43;80.89;99562.19;5013423;28;20022;-79
2022/04/05 09:07:21;;;;;;;8.30;1.15;;;;;;;8.10;79.51;99559.03;5022020;28;20558;-83
2022/04/05 09:10:16;;;;;;;7.47;1.17;;;;;;;8.32;76.99;99499.72;5022755;28;20167;-83
2022/04/05 09:12:50;;;;;;;11.50;1.73;;;;;;;8.60;75.01;99469.94;5004941;28;20045;-80
2022/04/05 09:15:15;;;;;;;5.45;1.30;;;;;;;8.66;74.62;99485.16;5006103;28;20077;-86
2022/04/05 09:17:42;;;;;;;8.17;1.93;;;;;;;8.31;74.33;99452.03;5022653;28;20092;-81
2022/04/05 09:20:08;;;;;;;4.43;1.10;;;;;;;8.42;75.19;99484.38;5007748;28;20029;-82
2022/04/05 09:22:34;;;;;;;8.48;1.77;;;;;;;8.30;75.80;99495.59;5023161;28;20306;-83
2022/04/05 09:25:08;;;;;;;6.70;1.10;;;;;;;8.53;74.25;99445.88;4997207;28;20033;-86
2022/04/05 09:27:55;;;;;;;5.25;1.30;;;;;;;8.02;74.23;99422.50;5022580;28;20042;-80
2022/04/05 09:30:31;;;;;;;13.52;2.15;;;;;;;7.50;75.23;99440.97;5019404;28;20499;-85
2022/04/05 09:32:58;;;;;;;10.48;1.80;;;;;;;7.52;76.05;99463.69;4993316;28;20111;-83
2022/04/05 09:35:40;;;;;;;4.38;1.08;;;;;;;7.45;74.98;99422.91;5021255;28;20128;-84
2022/04/05 09:38:11;;;;;;;10.90;1.58;;;;;;;8.34;73.74;99457.81;4988332;28;20022;-81
2022/04/05 09:40:37;;;;;;;6.15;1.77;;;;;;;8.64;72.87;99457.94;5001136;28;20426;-81
2022/04/05 09:43:08;;;;;;;7.80;1.27;;;;;;;8.50;71.01;99384.22;5005300;28;20044;-80
2022/04/05 09:46:06;;;;;;;11.15;1.23;;;;;;;8.78;71.43;99419.84;5017015;28;20357;-79
2022/04/05 09:48:45;;;;;;;11.70;1.73;;;;;;;8.45;72.37;99429.97;5011416;28;20030;-78
2022/04/05 09:51:24;;;;;;;5.65;1.35;;;;;;;8.37;74.62;99494.69;5008865;28;20045;-79
2022/04/05 09:53:56;;;;;;;7.63;1.67;;;;;;;8.13;75.71;99498.38;5013485;28;20029;-79
2022/04/05 09:56:51;;;;;;;8.52;2.47;;;;;;;7.48;76.95;99486.28;5033083;28;20026;-79
2022/04/05 09:59:18;;;;;;;18.55;3.15;;;;;;;7.34;77.86;99522.34;5018090;28;20037;-78
2022/04/05 10:01:46;;;;;;;12.73;2.13;;;;;;;7.18;77.39;99504.66;5010844;28;20033;-80
2022/04/05 10:04:15;;;;;;;6.80;1.67;;;;;;;7.14;76.81;99476.81;5010064;28;20041;-79
2022/04/05 10:06:46;;;;;;;10.88;2.13;;;;;;;7.11;77.44;99498.38;5008382;28;20080;-78
2022/04/05 10:09:17;;;;;;;6.45;1.15;;;;;;;6.79;79.06;99525.81;5020559;28;20030;-79
2022/04/05 10:11:43;;;;;;;7.30;2.40;;;;;;;6.68;81.94;99595.13;5021690;28;20037;-79
2022/04/05 10:14:11;;;;;;;9.05;1.52;;;;;;;6.45;83.76;99616.16;5025794;28;20025;-80
2022/04/05 10:16:37;;;;;;;7.15;1.08;;;;;;;6.33;86.72;99642.97;5019604;28;20050;-79
2022/04/05 10:19:09;;;;;;;7.13;1.17;;;;;;;5.93;89.37;99655.06;4997186;28;20109;-80
2022/04/05 10:21:37;;;;;;;3.35;0.98;;;;;;;5.14;92.39;99656.06;5011826;28;20038;-79
2022/04/05 10:24:05;;;;;;;6.70;1.98;;;;;;;5.14;97.41;99692.31;4986869;28;20471;-80
2022/04/05 10:26:39;;;;;;;7.43;1.45;;;;;;;5.12;100.00;99703.03;4988958;28;20133;-80
2022/04/05 10:29:07;;;;;;;6.07;1.33;;;;;;;5.32;100.00;99711.63;5002335;28;20022;-79
2022/04/05 10:31:45;;;;;;;6.30;1.33;;;;;;;5.56;100.00;99713.63;4995759;28;20033;-79
2022/04/05 10:34:16;;;;;;;5.88;1.08;;;;;;;6.26;100.00;99732.06;5003975;28;20120;-79
2022/04/05 10:37:05;;;;;;;11.95;2.53;;;;;;;6.66;100.00;99716.47;5012959;28;20682;-79
2022/04/05 10:39:30;;;;;;;10.20;1.67;;;;;;;6.94;96.24;99686.00;5010604;28;20049;-78
2022/04/05 10:42:08;;;;;;;3.90;1.50;;;;;;;7.23;94.04;99665.25;5010088;28;20714;-77
2022/04/05 10:44:35;;;;;;;8.52;1.45;;;;;;;7.44;91.73;99649.63;5000687;28;20041;-78
2022/04/05 10:47:04;;;;;;;6.75;2.00;;;;;;;7.55;89.60;99627.19;5009934;28;20102;-78
2022/04/05 10:49:34;;;;;;;13.60;1.98;;;;;;;6.81;87.37;99578.69;4993063;28;20098;-78
2022/04/05 10:52:13;;;;;;;10.95;1.02;;;;;;;6.68;87.40;99580.03;5008926;28;20048;-78
2022/04/05 10:54:43;;;;;;;5.45;1.10;;;;;;;6.65;88.27;99598.94;5009871;28;20057;-78
2022/04/05 10:57:26;;;;;;;8.90;1.52;;;;;;;6.48;89.36;99608.69;4994109;28;20783;-79
2022/04/05 10:59:59;;;;;;;7.50;1.88;;;;;;;6.22;89.62;99616.75;5010344;28;20113;-79
2022/04/05 11:02:35;;;;;;;8.45;1.50;;;;;;;6.17;89.84;99616.41;4994470;28;20056;-79
2022/04/05 11:05:18;;;;;;;4.93;1.42;;;;;;;6.31;90.11;99626.38;5011437;28;20042;-79
2022/04/05 11:07:59;;;;;;;9.20;1.17;;;;;;;6.49;90.57;99638.69;5008573;28;20030;-78
2022/04/05 11:10:29;;;;;;;5.43;1.00;;;;;;;6.75;90.86;99643.88;5011779;28;20108;-78
2022/04/05 11:13:04;;;;;;;8.45;1.13;;;;;;;6.88;89.87;99632.75;4995428;28;20133;-78
2022/04/05 11:15:48;;;;;;;14.65;2.58;;;;;;;7.00;88.44;99619.97;5011514;28;20033;-79
2022/04/05 11:18:16;;;;;;;5.45;1.10;;;;;;;6.98;86.35;99583.84;5005442;28;20038;-79
2022/04/05 11:20:43;;;;;;;4.97;1.38;;;;;;;7.48;83.58;99568.63;5011233;28;20563;-79
2022/04/05 11:23:10;;;;;;;7.28;1.77;;;;;;;7.26;79.42;99465.78;5003312;28;20562;-79
2022/04/05 11:25:36;;;;;;;4.47;0.90;;;;;;;7.51;78.19;99477.16;5011353;28;20106;-78
2022/04/05 11:28:13;;;;;;;;;;;;;;;8.01;77.14;99489.97;5011472;28;20068;-76
2022/04/05 11:30:45;;;;;;;7.05;1.00;;;;;;;8.15;74.75;99429.91;5002758;28;19913;-78
2022/04/05 11:33:16;;;;;;;5.75;0.98;;;;;;;8.42;74.61;99465.75;5012059;28;20068;-78
2022/04/05 11:35:56;;;;;;;2.08;0.70;;;;;;;8.35;73.53;99418.75;5011335;28;20542;-78
2022/04/05 11:38:21;;;;;;;9.52;1.08;;;;;;;8.23;73.16;99421.03;5011240;28;20034;-79